Rubio, Iowa
Current Conditions -  °F | °C
As of 6:35 AM on Monday 20 Oct 2014 (Local Time) from KFFL Reporting Station
NA  
Wind Chill: 43°   Ceiling: NA
Heat Index: 46°   Visibility: NA
Dew Point: 43°   Wind: 7mph
Humidity: 87%   Direction: 300°WNW
Pressure: 29.94"   Gusts: NA
Location:  41.202°N, 91.9548°W
Report Text: KFFL 201135Z AUTO 30006KT 08/06 A2994 RMK AO2
Loading
Personal Weather Stations






























Interactive Weather Map
Tropical Storm Tracking
New forecast layout! Learn more

10-Day Weather Forecast

Advertisements
Track Severe Weather on mobile